Time;durP1;ratioP1;P1;durP2;ratioP2;P2;SDS_P1;SDS_P2;PMS_P1;PMS_P2;Temp;Humidity;BMP_temperature;BMP_pressure;BME280_temperature;BME280_humidity;BME280_pressure;Samples;Min_cycle;Max_cycle;Signal;HPM_P1;HPM_P2
2021/10/06 00:00:09;;;;;;;0.10;0.10;;;12.10;99.90;;;;;;4978361;28;20053;-77
2021/10/06 00:02:35;;;;;;;0.10;0.10;;;11.90;99.90;;;;;;4978217;28;20030;-77
2021/10/06 00:05:00;;;;;;;0.10;0.10;;;11.80;99.90;;;;;;4978121;28;20259;-77
2021/10/06 00:07:26;;;;;;;0.10;0.10;;;12.00;99.90;;;;;;4961950;28;20359;-77
2021/10/06 00:09:52;;;;;;;0.20;0.20;;;11.90;99.90;;;;;;4977956;28;20029;-77
2021/10/06 00:12:18;;;;;;;0.10;0.10;;;11.90;99.90;;;;;;4977962;28;20034;-77
2021/10/06 00:14:43;;;;;;;0.10;0.10;;;11.90;99.90;;;;;;4977570;28;20027;-77
2021/10/06 00:17:09;;;;;;;0.38;0.20;;;11.90;99.90;;;;;;4977737;28;20034;-77
2021/10/06 00:19:35;;;;;;;0.10;0.10;;;11.90;99.90;;;;;;4995523;28;20038;-77
2021/10/06 00:22:00;;;;;;;0.10;0.10;;;11.90;99.90;;;;;;4961625;28;20037;-77
2021/10/06 00:24:26;;;;;;;0.45;0.40;;;11.80;99.90;;;;;;4977769;28;20478;-77
2021/10/06 00:26:52;;;;;;;0.10;0.10;;;11.70;99.90;;;;;;4977187;28;20501;-77
2021/10/06 00:29:18;;;;;;;1.80;0.45;;;11.70;99.90;;;;;;4961438;28;20026;-77
2021/10/06 00:31:44;;;;;;;0.10;0.10;;;11.60;99.90;;;;;;4995046;28;20022;-77
2021/10/06 00:34:09;;;;;;;0.30;0.30;;;11.50;99.90;;;;;;4977679;28;20030;-77
2021/10/06 00:36:35;;;;;;;0.10;0.10;;;11.40;99.90;;;;;;4961407;28;20026;-76
2021/10/06 00:39:01;;;;;;;0.10;0.10;;;11.40;99.90;;;;;;4977383;28;20122;-77
2021/10/06 00:41:27;;;;;;;0.10;0.10;;;11.50;99.90;;;;;;4995063;28;20049;-77
2021/10/06 00:43:53;;;;;;;0.03;0.03;;;11.50;99.90;;;;;;4961280;28;20077;-77
2021/10/06 00:46:18;;;;;;;0.10;0.10;;;11.50;99.90;;;;;;4977165;28;20081;-77
2021/10/06 00:48:44;;;;;;;0.10;0.10;;;11.50;99.90;;;;;;4994757;28;20447;-76
2021/10/06 00:51:12;;;;;;;0.28;0.28;;;11.50;99.90;;;;;;4994612;28;20027;-78
2021/10/06 00:53:38;;;;;;;0.20;0.20;;;11.60;99.90;;;;;;4977456;28;20023;-77
2021/10/06 00:56:04;;;;;;;0.47;0.40;;;11.60;99.90;;;;;;4977179;28;20030;-76
2021/10/06 00:58:30;;;;;;;0.10;0.10;;;11.40;99.90;;;;;;4976813;28;20027;-77
2021/10/06 01:00:55;;;;;;;0.20;0.20;;;11.30;99.90;;;;;;4994433;28;20386;-77
2021/10/06 01:03:21;;;;;;;0.10;0.10;;;11.20;99.90;;;;;;4977103;28;20378;-77
2021/10/06 01:05:49;;;;;;;0.15;0.15;;;11.30;99.90;;;;;;4976896;28;20169;-77
2021/10/06 01:08:15;;;;;;;0.30;0.30;;;11.20;99.90;;;;;;4976996;28;20037;-77
2021/10/06 01:10:41;;;;;;;0.10;0.10;;;11.10;99.90;;;;;;4994293;28;20030;-77
2021/10/06 01:13:07;;;;;;;0.38;0.38;;;11.00;99.90;;;;;;4994148;28;20378;-77
2021/10/06 01:15:33;;;;;;;0.30;0.25;;;11.00;99.90;;;;;;4976669;28;20105;-77
2021/10/06 01:17:59;;;;;;;0.10;0.10;;;11.10;99.90;;;;;;4976724;28;20034;-77
2021/10/06 01:20:25;;;;;;;0.20;0.20;;;11.00;99.90;;;;;;4976572;28;20471;-78
2021/10/06 01:22:50;;;;;;;0.10;0.10;;;11.10;99.90;;;;;;4960386;28;20026;-77
2021/10/06 01:25:17;;;;;;;0.10;0.10;;;11.10;99.90;;;;;;4960347;28;20026;-77
2021/10/06 01:27:44;;;;;;;0.10;0.10;;;11.20;99.90;;;;;;4993777;28;20028;-77
2021/10/06 01:30:12;;;;;;;0.10;0.10;;;11.10;99.90;;;;;;4993892;28;20038;-77
2021/10/06 01:32:40;;;;;;;0.10;0.10;;;11.20;99.90;;;;;;4976335;28;20022;-76
2021/10/06 01:35:09;;;;;;;0.10;0.10;;;11.10;99.90;;;;;;4960271;28;20034;-77
2021/10/06 01:37:35;;;;;;;0.10;0.10;;;11.00;99.90;;;;;;4993687;28;20052;-76
2021/10/06 01:40:06;;;;;;;0.10;0.10;;;11.00;99.90;;;;;;4993002;28;20124;-77
2021/10/06 01:42:32;;;;;;;0.23;0.23;;;11.10;99.90;;;;;;4976330;28;20032;-77
2021/10/06 01:44:58;;;;;;;0.20;0.20;;;11.10;99.90;;;;;;4993609;28;20536;-78
2021/10/06 01:47:25;;;;;;;0.20;0.20;;;11.10;99.90;;;;;;4993593;28;20030;-77
2021/10/06 01:49:51;;;;;;;0.10;0.10;;;11.00;99.90;;;;;;4976393;28;20102;-76
2021/10/06 01:52:19;;;;;;;1.38;0.20;;;11.00;99.90;;;;;;4993673;28;20030;-77
2021/10/06 01:54:46;;;;;;;0.20;0.20;;;10.90;99.90;;;;;;4976121;28;20029;-77
2021/10/06 01:57:12;;;;;;;0.20;0.20;;;10.90;99.90;;;;;;4993586;28;20023;-77
2021/10/06 01:59:42;;;;;;;0.10;0.10;;;10.90;99.90;;;;;;4976237;28;20053;-77
2021/10/06 02:02:08;;;;;;;0.10;0.10;;;10.90;99.90;;;;;;4976135;28;20169;-76
2021/10/06 02:04:34;;;;;;;0.10;0.10;;;11.00;99.90;;;;;;4959835;28;20121;-77
2021/10/06 02:07:00;;;;;;;0.10;0.10;;;11.10;99.90;;;;;;4993513;28;20026;-77
2021/10/06 02:09:26;;;;;;;1.35;0.43;;;11.10;99.90;;;;;;4959849;28;20113;-77
2021/10/06 02:11:51;;;;;;;0.28;0.22;;;11.10;99.90;;;;;;4975796;28;20525;-77
2021/10/06 02:14:17;;;;;;;0.10;0.10;;;11.00;99.90;;;;;;4959657;28;20470;-77
2021/10/06 02:16:43;;;;;;;0.82;0.15;;;10.90;99.90;;;;;;4993512;28;20074;-77
2021/10/06 02:19:09;;;;;;;0.10;0.10;;;10.80;99.90;;;;;;4993547;28;20093;-77
2021/10/06 02:21:35;;;;;;;0.20;0.20;;;10.80;99.90;;;;;;4959532;28;20084;-77
2021/10/06 02:24:02;;;;;;;0.10;0.10;;;10.80;99.90;;;;;;4975656;28;20030;-77
2021/10/06 02:26:27;;;;;;;0.47;0.45;;;10.70;99.90;;;;;;4992992;28;20022;-77
2021/10/06 02:28:53;;;;;;;0.10;0.10;;;10.60;99.90;;;;;;4993113;28;20489;-76
2021/10/06 02:31:19;;;;;;;0.20;0.20;;;10.60;99.90;;;;;;4959362;28;20026;-78
2021/10/06 02:33:45;;;;;;;0.20;0.20;;;10.70;99.90;;;;;;4993051;28;20026;-77
2021/10/06 02:36:10;;;;;;;0.10;0.10;;;10.70;99.90;;;;;;4975576;28;20026;-77
2021/10/06 02:38:36;;;;;;;0.20;0.20;;;10.80;99.90;;;;;;4959346;28;20069;-77
2021/10/06 02:41:02;;;;;;;0.10;0.10;;;10.90;99.90;;;;;;4975225;28;20047;-77
2021/10/06 02:43:27;;;;;;;0.10;0.10;;;10.70;99.90;;;;;;4975585;28;20117;-77
2021/10/06 02:45:53;;;;;;;1.77;1.70;;;10.70;99.90;;;;;;4975237;28;20054;-77
2021/10/06 02:48:21;;;;;;;0.10;0.10;;;10.80;99.90;;;;;;4959177;28;20389;-77
2021/10/06 02:50:47;;;;;;;0.10;0.10;;;10.70;99.90;;;;;;4975156;28;20031;-77
2021/10/06 02:53:13;;;;;;;0.20;0.20;;;10.70;99.90;;;;;;4975229;28;20037;-77
2021/10/06 02:55:39;;;;;;;0.10;0.10;;;10.80;99.90;;;;;;4975289;28;20026;-77
2021/10/06 02:58:04;;;;;;;0.10;0.10;;;11.00;99.90;;;;;;4975021;28;20135;-76
2021/10/06 03:00:30;;;;;;;0.13;0.13;;;10.90;99.90;;;;;;4992810;28;20031;-77
2021/10/06 03:02:56;;;;;;;0.13;0.13;;;11.00;99.90;;;;;;4992727;28;20027;-77
2021/10/06 03:05:22;;;;;;;0.10;0.10;;;10.90;99.90;;;;;;4959053;28;20077;-77
2021/10/06 03:07:47;;;;;;;0.13;0.13;;;10.90;99.90;;;;;;4992691;28;20041;-77
2021/10/06 03:10:13;;;;;;;0.35;0.35;;;10.80;99.90;;;;;;4975171;28;20033;-77
2021/10/06 03:12:40;;;;;;;0.25;0.25;;;10.80;99.90;;;;;;4992600;28;20029;-78
2021/10/06 03:15:08;;;;;;;0.20;0.20;;;10.60;99.90;;;;;;4975160;28;20394;-78
2021/10/06 03:17:34;;;;;;;0.20;0.20;;;10.60;99.90;;;;;;4992545;28;20069;-77
2021/10/06 03:19:59;;;;;;;0.20;0.20;;;10.60;99.90;;;;;;4992535;28;20015;-77
2021/10/06 03:22:25;;;;;;;0.10;0.10;;;10.50;99.90;;;;;;4975114;28;20474;-77
2021/10/06 03:24:51;;;;;;;0.52;0.52;;;10.50;99.90;;;;;;4975138;28;20034;-78
2021/10/06 03:27:17;;;;;;;0.38;0.38;;;10.40;99.90;;;;;;4992452;28;20142;-78
2021/10/06 03:29:43;;;;;;;0.10;0.10;;;10.40;99.90;;;;;;4992489;28;20041;-78
2021/10/06 03:32:10;;;;;;;0.30;0.30;;;10.60;99.90;;;;;;4974849;28;20538;-78
2021/10/06 03:34:36;;;;;;;0.17;0.17;;;10.40;99.90;;;;;;4992400;28;20022;-78
2021/10/06 03:37:02;;;;;;;0.10;0.10;;;10.50;99.90;;;;;;4992442;28;20028;-78
2021/10/06 03:39:28;;;;;;;0.13;0.13;;;10.50;99.90;;;;;;4974982;28;20022;-78
2021/10/06 03:41:54;;;;;;;0.10;0.10;;;10.40;99.90;;;;;;4975114;28;20019;-77
2021/10/06 03:44:20;;;;;;;0.20;0.20;;;10.40;99.90;;;;;;4992362;28;20050;-78
2021/10/06 03:46:46;;;;;;;0.10;0.10;;;10.30;99.90;;;;;;4958763;28;20035;-78
2021/10/06 03:49:11;;;;;;;0.63;0.60;;;10.20;99.90;;;;;;4974639;28;20034;-78
2021/10/06 03:51:37;;;;;;;0.20;0.20;;;10.20;99.90;;;;;;4974849;28;20085;-78
2021/10/06 03:54:03;;;;;;;0.10;0.10;;;10.10;99.90;;;;;;4974665;28;20019;-78
2021/10/06 03:56:29;;;;;;;0.20;0.20;;;10.20;99.90;;;;;;4992054;28;20027;-78
2021/10/06 03:58:55;;;;;;;0.20;0.20;;;10.20;99.90;;;;;;4992002;28;20034;-77
2021/10/06 04:01:20;;;;;;;0.13;0.13;;;10.00;99.90;;;;;;4992125;28;20022;-78
2021/10/06 04:03:46;;;;;;;0.15;0.15;;;9.90;99.90;;;;;;4977844;28;20478;-77
2021/10/06 04:06:12;;;;;;;0.20;0.20;;;9.90;99.90;;;;;;4978208;28;20022;-77
2021/10/06 04:08:38;;;;;;;1.65;1.00;;;9.90;99.90;;;;;;4995480;28;20065;-78
2021/10/06 04:11:03;;;;;;;0.20;0.20;;;9.80;99.90;;;;;;4995698;28;20019;-78
2021/10/06 04:13:29;;;;;;;0.20;0.20;;;9.90;99.90;;;;;;4995439;28;20026;-78
2021/10/06 04:15:55;;;;;;;0.10;0.10;;;9.80;99.90;;;;;;4995463;28;20033;-77
2021/10/06 04:18:21;;;;;;;0.30;0.30;;;9.90;99.90;;;;;;4995308;28;20046;-77
2021/10/06 04:20:46;;;;;;;0.13;0.13;;;10.00;99.90;;;;;;4995449;28;20488;-78
2021/10/06 04:23:12;;;;;;;0.15;0.15;;;10.10;99.90;;;;;;4977864;28;20023;-78
2021/10/06 04:25:38;;;;;;;0.10;0.10;;;10.10;99.90;;;;;;4977646;28;20034;-77
2021/10/06 04:28:04;;;;;;;0.57;0.40;;;10.20;99.90;;;;;;4977466;28;20053;-78
2021/10/06 04:30:30;;;;;;;0.17;0.17;;;10.10;99.90;;;;;;4977986;28;20030;-78
2021/10/06 04:32:56;;;;;;;0.20;0.20;;;10.00;99.90;;;;;;4995225;28;20026;-78
2021/10/06 04:35:22;;;;;;;0.10;0.10;;;10.10;99.90;;;;;;4977600;28;20034;-78
2021/10/06 04:37:47;;;;;;;0.20;0.20;;;10.10;99.90;;;;;;4977556;28;20233;-78
2021/10/06 04:40:13;;;;;;;0.10;0.10;;;10.20;99.90;;;;;;4995454;28;20023;-78
2021/10/06 04:42:39;;;;;;;0.17;0.17;;;10.20;99.90;;;;;;4995023;28;20118;-78
2021/10/06 04:45:05;;;;;;;0.20;0.20;;;10.20;99.90;;;;;;4995103;28;20061;-78
2021/10/06 04:47:31;;;;;;;0.50;0.50;;;10.10;99.90;;;;;;4977504;28;20242;-78
2021/10/06 04:49:57;;;;;;;0.17;0.17;;;10.00;99.90;;;;;;4977519;28;20510;-78
2021/10/06 04:52:23;;;;;;;0.20;0.20;;;9.90;99.90;;;;;;4994784;28;20034;-77
2021/10/06 04:54:52;;;;;;;0.20;0.20;;;9.90;99.90;;;;;;4960955;28;20053;-77
2021/10/06 04:57:19;;;;;;;0.45;0.45;;;9.80;99.90;;;;;;4977064;28;20505;-77
2021/10/06 04:59:44;;;;;;;0.20;0.20;;;9.80;99.90;;;;;;4994677;28;20026;-78
2021/10/06 05:02:10;;;;;;;0.20;0.20;;;9.70;99.90;;;;;;4994679;28;20096;-78
2021/10/06 05:04:36;;;;;;;0.15;0.15;;;9.70;99.90;;;;;;4994519;28;20065;-78
2021/10/06 05:07:02;;;;;;;0.20;0.20;;;9.70;99.90;;;;;;4994569;28;20486;-77
2021/10/06 05:09:27;;;;;;;1.08;0.28;;;9.70;99.90;;;;;;4994417;28;20033;-78
2021/10/06 05:11:53;;;;;;;0.25;0.25;;;9.70;99.90;;;;;;4960708;28;20033;-78
2021/10/06 05:14:19;;;;;;;0.17;0.15;;;9.70;99.90;;;;;;4993420;28;20019;-78
2021/10/06 05:16:44;;;;;;;0.98;0.30;;;9.70;99.90;;;;;;4976912;28;20022;-77
2021/10/06 05:19:12;;;;;;;0.30;0.30;;;9.80;99.90;;;;;;4976595;28;20031;-77
2021/10/06 05:21:39;;;;;;;1.63;1.00;;;9.80;99.90;;;;;;4976713;28;20167;-77
2021/10/06 05:24:05;;;;;;;0.10;0.10;;;9.70;99.90;;;;;;4977196;28;20497;-77
2021/10/06 05:26:31;;;;;;;0.32;0.32;;;9.70;99.90;;;;;;4994147;28;20037;-78
2021/10/06 05:28:57;;;;;;;1.75;0.55;;;9.70;99.90;;;;;;4994194;28;20490;-78
2021/10/06 05:31:23;;;;;;;0.22;0.22;;;9.80;99.90;;;;;;4993969;28;20026;-78
2021/10/06 05:33:49;;;;;;;0.68;0.68;;;9.70;99.90;;;;;;4994107;28;20035;-77
2021/10/06 05:36:17;;;;;;;0.28;0.28;;;9.70;99.90;;;;;;4976511;28;20029;-78
2021/10/06 05:38:43;;;;;;;0.10;0.10;;;9.70;99.90;;;;;;4994375;28;20026;-78
2021/10/06 05:41:09;;;;;;;0.20;0.20;;;9.70;99.90;;;;;;4970474;28;20027;-78
2021/10/06 05:43:36;;;;;;;0.30;0.30;;;9.70;99.90;;;;;;4973654;28;20057;-78
2021/10/06 05:46:02;;;;;;;0.45;0.45;;;9.70;99.90;;;;;;4976231;28;20088;-77
2021/10/06 05:48:28;;;;;;;0.10;0.10;;;9.70;99.90;;;;;;4988821;28;20034;-78
2021/10/06 05:50:54;;;;;;;0.40;0.40;;;9.60;99.90;;;;;;4974161;28;20518;-77
2021/10/06 05:53:20;;;;;;;1.38;1.27;;;9.40;99.90;;;;;;4977993;28;20045;-77
2021/10/06 05:55:46;;;;;;;0.30;0.30;;;9.40;99.90;;;;;;4959655;28;20027;-78
2021/10/06 05:58:13;;;;;;;0.10;0.10;;;9.40;99.90;;;;;;4978832;28;20053;-77
2021/10/06 06:00:39;;;;;;;0.20;0.20;;;9.40;99.90;;;;;;4956504;28;20026;-77
2021/10/06 06:03:08;;;;;;;0.20;0.20;;;9.60;99.90;;;;;;4975511;28;20378;-78
2021/10/06 06:05:34;;;;;;;0.10;0.10;;;9.60;99.90;;;;;;4975879;28;20030;-78
2021/10/06 06:07:59;;;;;;;0.10;0.10;;;9.60;99.90;;;;;;4975628;28;20172;-78
2021/10/06 06:10:25;;;;;;;0.38;0.38;;;9.70;99.90;;;;;;4975863;28;20050;-77
2021/10/06 06:12:51;;;;;;;0.20;0.20;;;9.60;99.90;;;;;;4976805;28;20091;-78
2021/10/06 06:15:17;;;;;;;0.20;0.20;;;9.70;99.90;;;;;;4995123;28;20045;-78
2021/10/06 06:17:42;;;;;;;0.10;0.10;;;9.80;99.90;;;;;;5012621;28;20029;-78
2021/10/06 06:20:11;;;;;;;0.38;0.30;;;9.80;99.90;;;;;;5012652;28;20025;-78
2021/10/06 06:22:38;;;;;;;0.30;0.30;;;9.70;99.90;;;;;;4994985;28;20388;-78
2021/10/06 06:25:06;;;;;;;0.13;0.13;;;9.60;99.90;;;;;;5012104;28;20026;-77
2021/10/06 06:27:31;;;;;;;0.22;0.22;;;9.70;99.90;;;;;;5012511;28;20056;-78
2021/10/06 06:29:57;;;;;;;0.20;0.20;;;9.80;99.90;;;;;;5012259;28;20394;-77
2021/10/06 06:32:23;;;;;;;0.20;0.20;;;9.80;99.90;;;;;;5012507;28;20025;-78
2021/10/06 06:34:49;;;;;;;0.10;0.10;;;9.70;99.90;;;;;;5012404;28;20026;-77
2021/10/06 06:37:15;;;;;;;0.30;0.30;;;9.60;99.90;;;;;;4994327;28;20017;-78
2021/10/06 06:39:40;;;;;;;0.65;0.40;;;9.70;99.90;;;;;;4969162;28;20019;-77
2021/10/06 06:42:06;;;;;;;0.40;0.40;;;9.70;99.90;;;;;;4961295;28;20027;-78
2021/10/06 06:44:32;;;;;;;0.20;0.20;;;9.70;99.90;;;;;;4975418;28;20106;-78
2021/10/06 06:46:57;;;;;;;2.47;0.77;;;9.80;99.90;;;;;;4965291;28;20035;-78
2021/10/06 06:49:23;;;;;;;0.20;0.20;;;9.80;99.90;;;;;;4973305;28;20081;-78
2021/10/06 06:51:49;;;;;;;0.10;0.10;;;9.80;99.90;;;;;;4955903;28;20093;-78
2021/10/06 06:54:14;;;;;;;0.30;0.30;;;10.00;99.90;;;;;;4973159;28;20479;-78
2021/10/06 06:56:40;;;;;;;0.20;0.20;;;10.00;99.90;;;;;;4972762;28;20023;-77
2021/10/06 06:59:08;;;;;;;0.10;0.10;;;9.90;99.90;;;;;;4955788;28;20506;-76
2021/10/06 07:01:34;;;;;;;0.20;0.20;;;10.10;99.90;;;;;;4955660;28;20073;-74
2021/10/06 07:04:00;;;;;;;0.10;0.10;;;10.20;99.90;;;;;;4980862;28;20019;-73
2021/10/06 07:06:28;;;;;;;0.25;0.25;;;10.40;99.90;;;;;;4983148;28;20030;-74
2021/10/06 07:08:54;;;;;;;0.20;0.20;;;10.60;99.90;;;;;;4980097;28;20075;-74
2021/10/06 07:11:21;;;;;;;0.10;0.10;;;10.60;99.90;;;;;;4974313;28;20026;-76
2021/10/06 07:13:47;;;;;;;0.60;0.60;;;10.80;99.90;;;;;;4992249;28;20026;-76
2021/10/06 07:16:12;;;;;;;0.30;0.30;;;10.50;99.90;;;;;;4964436;28;20497;-77
2021/10/06 07:18:38;;;;;;;0.17;0.17;;;10.30;99.90;;;;;;4970608;28;20037;-77
2021/10/06 07:21:04;;;;;;;0.20;0.20;;;10.30;99.90;;;;;;4973452;28;20414;-77
2021/10/06 07:23:30;;;;;;;1.20;0.35;;;10.40;99.90;;;;;;4975536;28;20097;-77
2021/10/06 07:25:56;;;;;;;0.30;0.30;;;10.20;99.90;;;;;;4974117;28;20474;-77
2021/10/06 07:28:21;;;;;;;0.57;0.57;;;10.10;99.90;;;;;;4974268;28;20030;-78
2021/10/06 07:30:47;;;;;;;0.47;0.30;;;10.20;99.90;;;;;;4991458;28;20116;-77
2021/10/06 07:33:13;;;;;;;0.22;0.22;;;10.30;99.90;;;;;;4991535;28;20022;-76
2021/10/06 07:35:39;;;;;;;0.13;0.13;;;10.30;99.90;;;;;;4991380;28;20030;-76
2021/10/06 07:38:06;;;;;;;0.20;0.20;;;10.30;99.90;;;;;;4975969;28;20022;-76
2021/10/06 07:40:32;;;;;;;0.10;0.10;;;10.40;99.90;;;;;;4995468;28;20025;-75
2021/10/06 07:42:57;;;;;;;0.30;0.30;;;10.40;99.90;;;;;;4993098;28;20026;-76
2021/10/06 07:45:23;;;;;;;0.70;0.45;;;10.60;99.90;;;;;;4977377;28;20482;-76
2021/10/06 07:47:49;;;;;;;0.20;0.20;;;10.50;99.90;;;;;;4995099;28;20038;-76
2021/10/06 07:50:15;;;;;;;0.13;0.13;;;10.50;99.90;;;;;;4977379;28;20136;-76
2021/10/06 07:52:41;;;;;;;0.20;0.20;;;10.60;99.90;;;;;;4977183;28;20057;-76
2021/10/06 07:55:07;;;;;;;0.20;0.20;;;10.80;99.90;;;;;;4994836;28;20022;-76
2021/10/06 07:57:33;;;;;;;0.10;0.10;;;10.80;99.90;;;;;;4994741;28;20022;-77
2021/10/06 07:59:59;;;;;;;0.28;0.28;;;11.00;99.90;;;;;;4994969;28;20497;-77
2021/10/06 08:02:26;;;;;;;0.10;0.10;;;11.00;99.90;;;;;;4994825;28;20058;-77
2021/10/06 08:04:52;;;;;;;0.22;0.22;;;11.00;99.90;;;;;;4985609;28;20030;-76
2021/10/06 08:07:17;;;;;;;0.20;0.20;;;10.90;99.90;;;;;;4991929;28;20018;-77
2021/10/06 08:09:43;;;;;;;0.10;0.10;;;11.00;99.90;;;;;;4975212;28;20063;-77
2021/10/06 08:12:09;;;;;;;0.25;0.25;;;11.10;99.90;;;;;;4981950;28;20093;-77
2021/10/06 08:14:35;;;;;;;2.17;0.85;;;11.10;99.90;;;;;;4976968;28;20022;-77
2021/10/06 08:17:01;;;;;;;0.10;0.10;;;11.10;99.90;;;;;;4976716;28;20042;-76
2021/10/06 08:19:26;;;;;;;0.10;0.10;;;11.10;99.90;;;;;;4994456;28;20034;-76
2021/10/06 08:21:52;;;;;;;0.50;0.50;;;11.20;99.90;;;;;;4977106;28;20037;-77
2021/10/06 08:24:18;;;;;;;0.20;0.20;;;11.20;99.90;;;;;;4994598;28;20045;-77
2021/10/06 08:26:43;;;;;;;0.20;0.20;;;11.20;99.90;;;;;;4977491;28;20030;-77
2021/10/06 08:29:09;;;;;;;0.20;0.20;;;11.40;99.90;;;;;;4961433;28;20076;-77
2021/10/06 08:31:35;;;;;;;0.38;0.17;;;11.30;99.90;;;;;;4994372;28;20026;-77
2021/10/06 08:34:01;;;;;;;0.30;0.30;;;11.40;99.90;;;;;;4994416;28;20029;-77
2021/10/06 08:36:27;;;;;;;0.30;0.30;;;11.30;99.90;;;;;;4992846;28;20138;-77
2021/10/06 08:38:53;;;;;;;0.20;0.20;;;11.20;99.90;;;;;;4994428;28;20017;-77
2021/10/06 08:41:20;;;;;;;0.20;0.20;;;11.20;99.90;;;;;;4986819;28;20023;-77
2021/10/06 08:43:47;;;;;;;0.15;0.15;;;11.40;99.90;;;;;;4957633;28;20143;-78
2021/10/06 08:46:13;;;;;;;0.20;0.20;;;11.40;99.90;;;;;;4957496;28;20023;-78
2021/10/06 08:48:38;;;;;;;0.20;0.20;;;11.50;99.90;;;;;;4988471;28;20040;-78
2021/10/06 08:51:04;;;;;;;0.10;0.10;;;11.60;99.90;;;;;;4992559;28;20363;-78
2021/10/06 08:53:30;;;;;;;0.20;0.20;;;11.50;99.90;;;;;;4993798;28;20030;-77
2021/10/06 08:55:56;;;;;;;0.10;0.10;;;11.40;99.90;;;;;;4971901;28;20019;-77
2021/10/06 08:58:22;;;;;;;0.10;0.10;;;11.40;99.90;;;;;;4959259;28;20630;-78
2021/10/06 09:00:59;;;;;;;0.60;0.60;;;11.60;99.90;;;;;;4976743;28;20030;-77
2021/10/06 09:03:30;;;;;;;0.20;0.20;;;11.70;99.90;;;;;;4960305;28;20030;-78
2021/10/06 09:06:10;;;;;;;0.20;0.20;;;11.70;99.90;;;;;;4993172;28;20019;-78
2021/10/06 09:08:37;;;;;;;0.52;0.40;;;11.80;99.90;;;;;;4992473;28;20058;-78
2021/10/06 09:11:05;;;;;;;0.50;0.50;;;11.60;99.90;;;;;;4959894;28;20024;-77
2021/10/06 09:13:35;;;;;;;0.20;0.20;;;11.40;99.90;;;;;;4975840;28;20026;-76
2021/10/06 09:16:02;;;;;;;0.47;0.45;;;11.30;99.90;;;;;;4993289;28;20018;-78
2021/10/06 09:18:30;;;;;;;0.40;0.40;;;11.10;99.90;;;;;;4975981;28;20057;-78
2021/10/06 09:21:08;;;;;;;0.20;0.20;;;11.20;99.90;;;;;;4975964;28;20027;-78
2021/10/06 09:23:41;;;;;;;0.10;0.10;;;11.40;99.90;;;;;;4976380;28;20030;-77
2021/10/06 09:26:10;;;;;;;0.10;0.10;;;11.60;99.90;;;;;;4975787;28;20030;-78
2021/10/06 09:28:48;;;;;;;0.20;0.20;;;11.70;99.90;;;;;;4993400;28;20026;-78
2021/10/06 09:31:17;;;;;;;0.40;0.40;;;11.40;99.90;;;;;;4976055;28;20039;-78
2021/10/06 09:33:59;;;;;;;0.17;0.17;;;11.60;99.90;;;;;;4975841;28;20065;-77
2021/10/06 09:36:32;;;;;;;;;;;11.60;99.90;;;;;;4976216;28;20026;-78
2021/10/06 09:39:03;;;;;;;0.40;0.40;;;11.50;99.90;;;;;;4975584;28;19914;-78
2021/10/06 09:41:33;;;;;;;4.40;0.30;;;11.20;99.90;;;;;;4975832;28;20031;-78
2021/10/06 09:44:11;;;;;;;0.98;0.30;;;11.30;99.90;;;;;;4959317;28;20632;-78
2021/10/06 09:46:40;;;;;;;0.20;0.20;;;11.30;99.90;;;;;;4992679;28;20019;-78
2021/10/06 09:49:36;;;;;;;0.28;0.28;;;11.50;99.90;;;;;;4975553;28;20049;-77
2021/10/06 09:52:14;;;;;;;0.77;0.77;;;11.60;99.90;;;;;;4959609;28;20243;-77
2021/10/06 09:54:51;;;;;;;0.20;0.20;;;11.70;99.90;;;;;;4992737;28;20022;-78
2021/10/06 09:57:23;;;;;;;0.20;0.20;;;11.90;99.90;;;;;;4992768;28;20026;-77
2021/10/06 09:59:50;;;;;;;0.40;0.10;;;11.90;99.90;;;;;;4958476;28;20031;-78
2021/10/06 10:02:17;;;;;;;0.77;0.77;;;12.00;99.90;;;;;;4993388;28;20081;-78
2021/10/06 10:04:43;;;;;;;0.45;0.45;;;12.20;99.90;;;;;;4975366;28;20117;-79
2021/10/06 10:07:09;;;;;;;0.30;0.30;;;12.80;99.90;;;;;;4967109;28;20475;-78
2021/10/06 10:09:36;;;;;;;0.13;0.13;;;12.90;99.90;;;;;;4967513;28;20030;-77
2021/10/06 10:12:03;;;;;;;0.20;0.20;;;13.00;99.90;;;;;;4960526;28;20030;-78
2021/10/06 10:14:29;;;;;;;0.13;0.13;;;12.80;99.90;;;;;;4977765;28;20093;-78
2021/10/06 10:16:55;;;;;;;0.63;0.63;;;13.20;99.90;;;;;;4956092;28;20046;-77
2021/10/06 10:19:20;;;;;;;0.10;0.10;;;12.90;99.90;;;;;;4973443;28;20479;-77
2021/10/06 10:21:49;;;;;;;0.20;0.20;;;13.00;99.90;;;;;;4978703;28;20105;-78
2021/10/06 10:24:21;;;;;;;0.10;0.10;;;13.30;99.90;;;;;;4992972;28;20482;-78
2021/10/06 10:27:08;;;;;;;0.80;0.20;;;13.40;99.90;;;;;;4959106;28;20030;-78
2021/10/06 10:29:43;;;;;;;0.10;0.10;;;13.40;99.90;;;;;;4975554;28;20026;-78
2021/10/06 10:32:22;;;;;;;0.20;0.20;;;14.00;99.90;;;;;;4975553;28;20031;-77
2021/10/06 10:35:03;;;;;;;0.30;0.30;;;14.70;99.90;;;;;;4992413;28;20159;-79
2021/10/06 10:37:51;;;;;;;0.20;0.20;;;15.20;96.30;;;;;;4992896;28;20064;-78
2021/10/06 10:40:34;;;;;;;1.02;0.40;;;14.90;94.40;;;;;;4992515;28;20065;-78
2021/10/06 10:43:09;;;;;;;0.20;0.20;;;15.00;94.30;;;;;;4992954;28;20030;-78
2021/10/06 10:45:39;;;;;;;0.15;0.15;;;15.30;93.30;;;;;;4975612;28;20092;-77
2021/10/06 10:48:07;;;;;;;0.40;0.40;;;14.90;94.00;;;;;;4975304;28;20027;-78
2021/10/06 10:50:42;;;;;;;0.25;0.25;;;14.90;91.90;;;;;;4975488;28;20133;-78
2021/10/06 10:53:08;;;;;;;0.15;0.15;;;15.40;91.90;;;;;;4975210;28;20101;-77
2021/10/06 10:55:55;;;;;;;0.25;0.20;;;15.60;91.00;;;;;;4992593;28;20018;-78
2021/10/06 10:58:32;;;;;;;0.10;0.10;;;16.10;88.00;;;;;;4991086;28;20038;-77
2021/10/06 11:01:12;;;;;;;0.43;0.30;;;16.30;85.90;;;;;;4992514;28;20030;-78
2021/10/06 11:04:06;;;;;;;0.30;0.30;;;16.80;82.30;;;;;;4990895;28;20034;-78
2021/10/06 11:06:36;;;;;;;0.10;0.10;;;16.70;81.60;;;;;;4974686;28;20513;-78
2021/10/06 11:09:31;;;;;;;0.55;0.43;;;17.30;79.50;;;;;;4974953;28;20031;-77
2021/10/06 11:12:06;;;;;;;0.10;0.10;;;18.00;76.50;;;;;;4994754;28;20117;-79
2021/10/06 11:14:33;;;;;;;1.05;0.70;;;18.50;76.90;;;;;;4996321;28;20122;-78
2021/10/06 11:17:17;;;;;;;0.43;0.25;;;19.20;71.70;;;;;;4978728;28;20026;-78
2021/10/06 11:19:45;;;;;;;0.57;0.30;;;18.30;73.60;;;;;;4978970;28;20386;-78
2021/10/06 11:22:23;;;;;;;0.13;0.13;;;17.80;73.70;;;;;;4996325;28;20049;-78
2021/10/06 11:24:59;;;;;;;1.08;0.65;;;17.00;75.80;;;;;;4996043;28;20030;-77
2021/10/06 11:27:28;;;;;;;0.15;0.15;;;16.00;77.30;;;;;;4978543;28;20072;-78
2021/10/06 11:29:56;;;;;;;1.13;0.63;;;15.50;81.10;;;;;;4995364;28;20401;-78
2021/10/06 11:32:22;;;;;;;0.10;0.10;;;15.70;81.40;;;;;;4995365;28;20042;-79
2021/10/06 11:34:51;;;;;;;0.10;0.10;;;15.90;81.50;;;;;;4994541;28;20026;-77
2021/10/06 11:37:19;;;;;;;0.10;0.10;;;15.70;79.30;;;;;;4994754;28;20364;-77
2021/10/06 11:39:46;;;;;;;0.20;0.20;;;15.60;81.40;;;;;;4978546;28;20022;-78
2021/10/06 11:42:12;;;;;;;0.43;0.43;;;15.30;82.90;;;;;;4991198;28;20035;-78
2021/10/06 11:44:39;;;;;;;0.63;0.28;;;15.20;85.10;;;;;;4994471;28;20157;-78
2021/10/06 11:47:15;;;;;;;0.10;0.10;;;15.00;82.60;;;;;;4943385;28;20125;-78
2021/10/06 11:49:43;;;;;;;0.10;0.10;;;15.60;83.60;;;;;;4967121;28;20034;-79
2021/10/06 11:52:17;;;;;;;0.20;0.20;;;16.40;80.70;;;;;;4978331;28;20027;-78
2021/10/06 11:54:43;;;;;;;0.10;0.10;;;17.40;76.30;;;;;;4961705;28;20498;-78
2021/10/06 11:57:13;;;;;;;0.10;0.10;;;18.10;71.50;;;;;;4978006;28;20022;-77
2021/10/06 11:59:42;;;;;;;0.10;0.10;;;17.90;70.10;;;;;;4977757;28;20034;-77
2021/10/06 12:02:10;;;;;;;0.10;0.10;;;17.90;72.40;;;;;;4995950;28;20478;-77
2021/10/06 12:04:37;;;;;;;0.13;0.13;;;17.60;74.20;;;;;;4993886;28;20054;-77
2021/10/06 12:07:27;;;;;;;0.17;0.17;;;17.00;74.40;;;;;;4995313;28;20029;-77
2021/10/06 12:09:57;;;;;;;0.57;0.13;;;16.20;76.30;;;;;;4994548;28;20117;-77
2021/10/06 12:12:31;;;;;;;0.10;0.10;;;15.40;80.00;;;;;;4977495;28;20487;-78
2021/10/06 12:15:08;;;;;;;0.10;0.10;;;15.20;81.30;;;;;;4977800;28;20054;-78
2021/10/06 12:17:42;;;;;;;0.10;0.10;;;15.10;81.90;;;;;;4995121;28;20105;-77
2021/10/06 12:20:13;;;;;;;0.20;0.20;;;15.40;83.20;;;;;;4995151;28;20110;-77
2021/10/06 12:22:56;;;;;;;0.10;0.10;;;15.70;80.90;;;;;;4994346;28;20065;-78
2021/10/06 12:25:24;;;;;;;0.10;0.10;;;16.10;78.40;;;;;;4994893;28;20050;-77
2021/10/06 12:27:56;;;;;;;0.98;0.35;;;16.40;75.90;;;;;;4977312;28;20490;-77
2021/10/06 12:30:28;;;;;;;0.20;0.20;;;16.60;77.00;;;;;;4994675;28;20026;-77
2021/10/06 12:33:14;;;;;;;3.40;0.20;;;16.50;74.20;;;;;;4977303;28;20037;-79
2021/10/06 12:35:44;;;;;;;0.25;0.25;;;16.20;75.00;;;;;;4994661;28;20027;-77
2021/10/06 12:38:12;;;;;;;0.17;0.17;;;16.00;75.90;;;;;;4977120;28;20054;-78
2021/10/06 12:40:42;;;;;;;0.30;0.30;;;15.90;74.70;;;;;;4994948;28;20034;-79
2021/10/06 12:43:14;;;;;;;0.20;0.20;;;15.10;76.90;;;;;;4977359;28;20154;-78
2021/10/06 12:46:12;;;;;;;0.20;0.20;;;14.90;79.20;;;;;;4960985;28;20034;-78
2021/10/06 12:48:52;;;;;;;0.28;0.28;;;14.80;78.90;;;;;;4960987;28;20034;-78
2021/10/06 12:51:22;;;;;;;0.10;0.10;;;14.80;80.70;;;;;;4972166;28;20503;-78